Time;durP1;ratioP1;P1;durP2;ratioP2;P2;SDS_P1;SDS_P2;PMS_P1;PMS_P2;Temp;Humidity;BMP_temperature;BMP_pressure;BME280_temperature;BME280_humidity;BME280_pressure;Samples;Min_cycle;Max_cycle;Signal;HPM_P1;HPM_P2
2023/10/19 00:01:55;;;;;;;32.80;19.50;;;;;;;10.59;100.00;96555.22;5055384;28;20245;-80
2023/10/19 00:04:23;;;;;;;31.80;18.80;;;;;;;10.60;100.00;96562.16;5056081;28;20207;-80
2023/10/19 00:06:48;;;;;;;30.07;18.90;;;;;;;10.61;100.00;96547.97;5055769;28;20232;-79
2023/10/19 00:09:16;;;;;;;28.87;18.50;;;;;;;10.61;100.00;96546.19;5056246;28;20646;-80
2023/10/19 00:11:42;;;;;;;30.43;19.97;;;;;;;10.60;100.00;96546.31;5055372;28;20254;-80
2023/10/19 00:14:15;;;;;;;27.87;18.00;;;;;;;10.61;100.00;96547.97;5055139;28;20580;-80
2023/10/19 00:16:44;;;;;;;27.83;18.87;;;;;;;10.64;100.00;96537.13;5055662;28;20230;-80
2023/10/19 00:19:11;;;;;;;26.87;18.10;;;;;;;10.66;100.00;96548.38;5055806;28;20213;-80
2023/10/19 00:21:50;;;;;;;28.83;17.97;;;;;;;10.64;100.00;96543.22;5055386;28;20224;-80
2023/10/19 00:24:18;;;;;;;29.97;18.50;;;;;;;10.68;100.00;96541.97;5055399;28;20616;-80
2023/10/19 00:26:44;;;;;;;27.77;17.80;;;;;;;10.68;100.00;96535.84;5055325;28;20231;-80
2023/10/19 00:29:29;;;;;;;28.47;18.20;;;;;;;10.71;100.00;96532.94;5055967;28;20274;-80
2023/10/19 00:31:56;;;;;;;27.10;17.03;;;;;;;10.70;100.00;96532.09;5054508;28;20242;-80
2023/10/19 00:34:23;;;;;;;28.53;17.67;;;;;;;10.71;100.00;96533.75;5055316;28;20399;-80
2023/10/19 00:36:51;;;;;;;30.37;18.03;;;;;;;10.72;100.00;96539.88;5055290;28;20750;-80
2023/10/19 00:39:20;;;;;;;26.20;17.13;;;;;;;10.70;100.00;96541.84;5056045;28;20208;-80
2023/10/19 00:41:48;;;;;;;28.80;17.53;;;;;;;10.76;100.00;96535.97;5056068;28;20234;-80
2023/10/19 00:44:16;;;;;;;25.97;17.30;;;;;;;10.72;100.00;96532.78;5055425;28;20212;-80
2023/10/19 00:46:49;;;;;;;24.07;16.27;;;;;;;10.74;100.00;96532.63;5055328;28;20330;-80
2023/10/19 00:49:17;;;;;;;29.53;18.13;;;;;;;10.78;100.00;96518.16;5054870;28;20222;-79
2023/10/19 00:52:02;;;;;;;29.30;17.90;;;;;;;10.80;100.00;96522.31;5055076;28;20243;-80
2023/10/19 00:54:33;;;;;;;25.87;16.20;;;;;;;10.83;100.00;96513.25;5055142;28;20209;-80
2023/10/19 00:57:04;;;;;;;28.80;18.23;;;;;;;10.89;100.00;96504.75;5055216;28;20215;-80
2023/10/19 00:59:35;;;;;;;24.47;17.07;;;;;;;10.91;100.00;96492.22;5054081;28;20640;-80
2023/10/19 01:02:16;;;;;;;28.47;18.17;;;;;;;10.91;100.00;96486.94;5054027;28;20231;-80
2023/10/19 01:04:44;;;;;;;27.37;17.13;;;;;;;10.94;100.00;96484.81;5055192;28;20241;-80
2023/10/19 01:07:15;;;;;;;24.40;16.23;;;;;;;10.97;100.00;96481.06;5054492;28;20322;-80
2023/10/19 01:09:44;;;;;;;26.10;17.37;;;;;;;10.98;100.00;96478.28;5054160;28;20245;-80
2023/10/19 01:12:25;;;;;;;25.87;16.27;;;;;;;10.97;100.00;96481.06;5053828;28;20234;-80
2023/10/19 01:15:13;;;;;;;25.10;15.80;;;;;;;10.98;100.00;96488.84;5054770;28;20266;-80
2023/10/19 01:17:43;;;;;;;26.60;17.73;;;;;;;11.00;100.00;96480.78;5054738;28;20258;-80
2023/10/19 01:20:22;;;;;;;25.00;15.90;;;;;;;11.03;100.00;96480.47;5054719;28;20261;-80
2023/10/19 01:23:20;;;;;;;26.63;15.47;;;;;;;11.04;100.00;96467.09;5053759;28;20247;-80
2023/10/19 01:25:59;;;;;;;24.77;16.97;;;;;;;11.13;100.00;96460.09;5054282;28;20231;-80
2023/10/19 01:28:28;;;;;;;23.20;16.00;;;;;;;11.11;100.00;96462.03;5054282;28;20667;-80
2023/10/19 01:30:55;;;;;;;23.97;16.70;;;;;;;11.09;100.00;96448.13;5053832;28;20586;-79
2023/10/19 01:33:23;;;;;;;25.60;17.00;;;;;;;11.13;100.00;96445.03;5053721;28;20218;-80
2023/10/19 01:38:35;;;;;;;23.40;15.83;;;;;;;11.13;100.00;96429.19;5053787;28;20218;-80
2023/10/19 01:41:06;;;;;;;25.93;16.50;;;;;;;11.16;100.00;96434.19;5053715;28;20231;-80
2023/10/19 01:43:33;;;;;;;22.67;16.00;;;;;;;11.19;100.00;96438.34;5052973;28;20243;-80
2023/10/19 01:46:04;;;;;;;24.23;15.43;;;;;;;11.21;100.00;96433.72;5054008;28;20208;-79
2023/10/19 01:48:33;;;;;;;24.47;15.80;;;;;;;11.23;100.00;96435.22;5053751;28;20895;-80
2023/10/19 01:50:59;;;;;;;25.03;16.03;;;;;;;11.27;100.00;96427.81;5053680;28;20279;-80
2023/10/19 01:53:26;;;;;;;24.33;15.83;;;;;;;11.30;100.00;96433.66;5053010;28;20318;-80
2023/10/19 01:55:57;;;;;;;23.30;16.40;;;;;;;11.31;100.00;96430.00;5054267;28;20233;-80
2023/10/19 01:58:25;;;;;;;23.83;15.03;;;;;;;11.35;100.00;96419.97;5053846;28;20209;-80
2023/10/19 02:00:54;;;;;;;22.80;16.03;;;;;;;11.33;100.00;96425.41;5052685;28;20281;-80
2023/10/19 02:03:22;;;;;;;20.13;14.70;;;;;;;11.33;100.00;96416.66;5052691;28;20215;-80
2023/10/19 02:05:50;;;;;;;19.80;13.93;;;;;;;11.35;100.00;96417.31;5053456;28;20212;-80
2023/10/19 02:08:17;;;;;;;22.40;14.83;;;;;;;11.37;100.00;96410.06;5053361;28;20710;-80
2023/10/19 02:10:46;;;;;;;19.63;14.30;;;;;;;11.39;100.00;96423.97;5053348;28;20215;-80
2023/10/19 02:13:15;;;;;;;24.77;14.20;;;;;;;11.41;100.00;96411.41;5052978;28;20666;-80
2023/10/19 02:15:42;;;;;;;21.93;14.43;;;;;;;11.41;100.00;96403.47;5053120;28;20213;-80
2023/10/19 02:18:10;;;;;;;21.60;14.03;;;;;;;11.41;100.00;96411.41;5053678;28;20208;-80
2023/10/19 02:20:39;;;;;;;21.87;14.27;;;;;;;11.44;100.00;96409.28;5053688;28;20617;-80
2023/10/19 02:23:06;;;;;;;23.57;15.10;;;;;;;11.45;100.00;96402.19;5053259;28;20230;-80
2023/10/19 02:25:36;;;;;;;22.33;14.70;;;;;;;11.49;100.00;96403.56;5053447;28;20310;-80
2023/10/19 02:28:03;;;;;;;21.43;14.87;;;;;;;11.50;100.00;96399.94;5053306;28;20227;-80
2023/10/19 02:30:30;;;;;;;22.70;14.60;;;;;;;11.52;100.00;96395.31;5052930;28;20254;-80
2023/10/19 02:32:57;;;;;;;21.60;14.73;;;;;;;11.52;100.00;96398.78;5052515;28;20303;-80
2023/10/19 02:35:23;;;;;;;20.63;15.53;;;;;;;11.54;100.00;96385.41;5053201;28;20215;-80
2023/10/19 02:37:49;;;;;;;21.20;14.47;;;;;;;11.55;100.00;96379.16;5053443;28;20207;-80
2023/10/19 02:40:20;;;;;;;23.23;15.13;;;;;;;11.59;100.00;96385.81;5052935;28;20204;-80
2023/10/19 02:42:47;;;;;;;20.30;14.10;;;;;;;11.61;100.00;96376.72;5052497;28;20701;-80
2023/10/19 02:45:15;;;;;;;20.40;14.87;;;;;;;11.64;100.00;96386.16;5052846;28;20762;-80
2023/10/19 02:47:44;;;;;;;25.20;15.63;;;;;;;11.65;100.00;96378.09;5052972;28;20326;-79
2023/10/19 02:50:13;;;;;;;23.40;15.17;;;;;;;11.62;100.00;96366.97;5052944;28;20241;-79
2023/10/19 02:52:40;;;;;;;24.40;16.50;;;;;;;11.59;100.00;96367.28;5052457;28;20258;-79
2023/10/19 02:55:09;;;;;;;19.87;14.37;;;;;;;11.54;100.00;96369.53;5052646;28;20218;-79
2023/10/19 02:57:34;;;;;;;23.77;16.03;;;;;;;11.52;100.00;96379.44;5053193;28;20233;-79
2023/10/19 03:00:07;;;;;;;24.43;15.83;;;;;;;11.53;100.00;96365.22;5052912;28;20562;-79
2023/10/19 03:02:36;;;;;;;20.90;15.23;;;;;;;11.55;100.00;96360.63;5052238;28;20242;-79
2023/10/19 03:05:10;;;;;;;20.83;14.20;;;;;;;11.53;100.00;96362.56;5052969;28;20620;-81
2023/10/19 03:07:36;;;;;;;21.23;14.67;;;;;;;11.44;100.00;96366.16;5053159;28;20277;-81
2023/10/19 03:10:02;;;;;;;20.83;14.10;;;;;;;11.39;100.00;96366.63;5052893;28;20211;-81
2023/10/19 03:12:30;;;;;;;25.30;15.63;;;;;;;11.35;100.00;96359.13;5053192;28;20598;-78
2023/10/19 03:14:56;;;;;;;23.00;14.60;;;;;;;11.28;100.00;96368.66;5057225;28;20302;-81
2023/10/19 03:17:24;;;;;;;20.90;14.13;;;;;;;11.18;100.00;96360.00;5057546;28;20243;-81
2023/10/19 03:19:50;;;;;;;21.67;14.87;;;;;;;11.17;100.00;96353.88;5058220;28;20210;-81
2023/10/19 03:22:19;;;;;;;23.00;14.90;;;;;;;11.17;100.00;96350.38;5077401;28;20231;-81
2023/10/19 03:24:45;;;;;;;23.13;15.23;;;;;;;11.12;100.00;96336.81;5079644;28;20202;-81
2023/10/19 03:27:15;;;;;;;22.63;15.17;;;;;;;11.11;100.00;96337.78;5077339;28;20313;-80
2023/10/19 03:29:47;;;;;;;24.17;14.27;;;;;;;11.05;100.00;96343.66;5076419;28;20208;-81
2023/10/19 03:32:16;;;;;;;22.10;13.30;;;;;;;11.01;100.00;96348.44;5076306;28;20316;-80
2023/10/19 03:34:47;;;;;;;20.63;13.30;;;;;;;11.02;100.00;96336.06;5076652;28;20212;-79
2023/10/19 03:37:14;;;;;;;21.23;13.93;;;;;;;11.01;100.00;96340.50;5076624;28;20301;-79
2023/10/19 03:39:45;;;;;;;22.60;13.53;;;;;;;10.97;100.00;96347.09;5076078;28;20207;-78
2023/10/19 03:42:14;;;;;;;19.47;12.13;;;;;;;10.95;100.00;96340.28;5075700;28;20239;-81
2023/10/19 03:44:45;;;;;;;19.07;12.80;;;;;;;10.92;100.00;96335.28;5076312;28;20311;-81
2023/10/19 03:47:14;;;;;;;20.60;12.60;;;;;;;10.91;100.00;96333.66;5076020;28;20207;-78
2023/10/19 03:49:41;;;;;;;21.87;13.20;;;;;;;10.96;100.00;96336.66;5075823;28;20222;-81
2023/10/19 03:52:20;;;;;;;20.77;12.80;;;;;;;10.97;100.00;96328.59;5074564;28;20292;-81
2023/10/19 03:54:49;;;;;;;20.37;13.43;;;;;;;10.96;100.00;96320.81;5075443;28;20584;-81
2023/10/19 03:57:22;;;;;;;18.70;11.87;;;;;;;10.92;100.00;96317.66;5075609;28;20218;-81
2023/10/19 03:59:53;;;;;;;17.20;12.17;;;;;;;10.88;100.00;96321.56;5075758;28;20265;-79
2023/10/19 04:02:20;;;;;;;19.47;12.73;;;;;;;10.83;100.00;96312.44;5074847;28;20592;-79
2023/10/19 04:04:48;;;;;;;21.50;12.90;;;;;;;10.88;100.00;96318.09;5075427;28;20204;-79
2023/10/19 04:07:20;;;;;;;20.67;12.77;;;;;;;10.82;100.00;96302.84;5075927;28;20544;-80
2023/10/19 04:09:59;;;;;;;22.13;13.27;;;;;;;10.82;100.00;96297.56;5075546;28;20206;-80
2023/10/19 04:12:28;;;;;;;19.30;12.73;;;;;;;10.77;100.00;96295.34;5074824;28;20231;-80
2023/10/19 04:14:55;;;;;;;18.30;11.87;;;;;;;10.71;100.00;96295.97;5075386;28;20219;-80
2023/10/19 04:17:23;;;;;;;21.40;12.47;;;;;;;10.68;100.00;96292.78;5075281;28;20210;-80
2023/10/19 04:19:49;;;;;;;18.70;12.93;;;;;;;10.68;100.00;96285.72;5075187;28;20309;-80
2023/10/19 04:22:22;;;;;;;22.27;12.93;;;;;;;10.66;100.00;96284.19;5074488;28;20236;-80
2023/10/19 04:24:52;;;;;;;20.93;12.97;;;;;;;10.76;100.00;96274.41;5074097;28;20203;-80
2023/10/19 04:27:21;;;;;;;22.53;13.47;;;;;;;10.82;100.00;96277.25;5075052;28;20203;-80
2023/10/19 04:29:49;;;;;;;21.53;13.00;;;;;;;10.82;100.00;96268.50;5075091;28;20207;-80
2023/10/19 04:32:23;;;;;;;19.90;12.67;;;;;;;10.79;100.00;96272.28;5074090;28;20641;-80
2023/10/19 04:34:51;;;;;;;24.57;13.43;;;;;;;10.88;100.00;96270.53;5074567;28;20274;-80
2023/10/19 04:37:18;;;;;;;23.03;13.27;;;;;;;10.93;100.00;96261.16;5074453;28;20207;-80
2023/10/19 04:39:45;;;;;;;20.40;12.67;;;;;;;10.99;100.00;96257.06;5074753;28;20242;-80
2023/10/19 04:42:14;;;;;;;24.33;14.13;;;;;;;11.00;100.00;96248.97;5073673;28;20787;-80
2023/10/19 04:44:40;;;;;;;21.43;13.40;;;;;;;11.03;100.00;96253.13;5074773;28;20214;-80
2023/10/19 04:47:07;;;;;;;21.17;12.83;;;;;;;11.04;100.00;96265.34;5074467;28;20592;-80
2023/10/19 04:49:34;;;;;;;21.60;12.70;;;;;;;11.06;100.00;96252.84;5073823;28;20232;-80
2023/10/19 04:52:00;;;;;;;23.53;13.33;;;;;;;11.10;100.00;96254.16;5073968;28;20238;-80
2023/10/19 04:54:27;;;;;;;21.33;12.83;;;;;;;11.06;100.00;96253.66;5074591;28;20219;-80
2023/10/19 04:56:55;;;;;;;20.37;13.03;;;;;;;11.06;100.00;96252.84;5074614;28;20214;-81
2023/10/19 04:59:23;;;;;;;20.60;12.30;;;;;;;11.01;100.00;96250.63;5074193;28;20218;-81
2023/10/19 05:01:50;;;;;;;18.67;11.40;;;;;;;10.99;100.00;96243.84;5073294;28;20253;-80
2023/10/19 05:04:18;;;;;;;19.90;12.10;;;;;;;10.98;100.00;96242.19;5074570;28;20229;-81
2023/10/19 05:06:45;;;;;;;18.50;12.50;;;;;;;10.98;100.00;96245.66;5074457;28;20278;-81
2023/10/19 05:09:12;;;;;;;24.33;14.40;;;;;;;11.01;100.00;96244.53;5074085;28;20598;-79
2023/10/19 05:11:39;;;;;;;19.87;13.07;;;;;;;10.94;100.00;96239.03;5073750;28;20238;-80
2023/10/19 05:14:06;;;;;;;22.73;13.43;;;;;;;10.92;100.00;96245.44;5073839;28;20214;-80
2023/10/19 05:16:33;;;;;;;20.77;12.97;;;;;;;10.91;100.00;96246.44;5074390;28;20206;-80
2023/10/19 05:19:00;;;;;;;22.73;14.03;;;;;;;10.88;100.00;96250.22;5074155;28;20212;-80
2023/10/19 05:21:27;;;;;;;22.50;13.40;;;;;;;10.87;100.00;96248.56;5073837;28;20716;-80
2023/10/19 05:23:53;;;;;;;19.57;12.17;;;;;;;10.83;100.00;96256.94;5073190;28;20213;-80
2023/10/19 05:26:19;;;;;;;22.23;13.20;;;;;;;10.85;100.00;96254.97;5073930;28;20246;-80
2023/10/19 05:28:47;;;;;;;19.67;12.50;;;;;;;10.83;100.00;96251.66;5073792;28;20238;-80
2023/10/19 05:31:15;;;;;;;18.80;12.17;;;;;;;10.83;100.00;96256.94;5073189;28;20223;-80
2023/10/19 05:33:42;;;;;;;18.43;11.83;;;;;;;10.80;100.00;96257.25;5072796;28;20207;-80
2023/10/19 05:36:09;;;;;;;21.40;11.93;;;;;;;10.80;100.00;96263.38;5072842;28;20213;-80
2023/10/19 05:38:35;;;;;;;18.77;11.33;;;;;;;10.78;100.00;96267.13;5073180;28;20589;-80
2023/10/19 05:41:03;;;;;;;23.97;12.23;;;;;;;10.80;100.00;96265.16;5073518;28;20235;-80
2023/10/19 05:43:31;;;;;;;20.57;12.27;;;;;;;10.81;100.00;96270.31;5072526;28;20302;-80
2023/10/19 05:45:57;;;;;;;20.43;12.23;;;;;;;10.80;100.00;96262.53;5072899;28;20207;-80
2023/10/19 05:48:24;;;;;;;19.10;12.20;;;;;;;10.79;100.00;96260.88;5073491;28;20231;-80
2023/10/19 05:50:52;;;;;;;16.97;11.43;;;;;;;10.76;100.00;96271.75;5073245;28;20233;-80
2023/10/19 05:53:19;;;;;;;21.33;11.97;;;;;;;10.75;100.00;96267.44;5074617;28;20214;-80
2023/10/19 05:55:45;;;;;;;20.87;12.70;;;;;;;10.77;100.00;96268.13;5073857;28;20216;-80
2023/10/19 05:58:12;;;;;;;21.83;12.77;;;;;;;10.80;100.00;96271.28;5073956;28;20233;-80
2023/10/19 06:00:39;;;;;;;19.90;11.70;;;;;;;10.85;100.00;96258.47;5073114;28;20641;-80
2023/10/19 06:03:05;;;;;;;21.27;12.17;;;;;;;10.91;100.00;96262.28;5073669;28;20223;-80
2023/10/19 06:05:32;;;;;;;19.80;12.07;;;;;;;10.95;100.00;96264.47;5073439;28;20246;-80
2023/10/19 06:08:00;;;;;;;22.77;13.30;;;;;;;11.01;100.00;96265.69;5072884;28;20323;-80
2023/10/19 06:10:29;;;;;;;21.50;12.80;;;;;;;11.02;100.00;96262.06;5073879;28;20208;-79
2023/10/19 06:12:57;;;;;;;24.47;12.73;;;;;;;11.05;100.00;96267.84;5072617;28;20215;-80
2023/10/19 06:15:24;;;;;;;21.13;12.07;;;;;;;11.06;100.00;96261.56;5074061;28;20280;-81
2023/10/19 06:17:51;;;;;;;21.93;13.20;;;;;;;11.13;100.00;96269.75;5073060;28;20685;-79
2023/10/19 06:20:23;;;;;;;22.53;12.90;;;;;;;11.21;100.00;96261.84;5072825;28;20268;-80
2023/10/19 06:22:50;;;;;;;27.43;14.07;;;;;;;11.28;100.00;96258.44;5072635;28;20238;-80
2023/10/19 06:25:19;;;;;;;28.13;15.10;;;;;;;11.31;100.00;96262.59;5072664;28;20204;-79
2023/10/19 06:27:46;;;;;;;26.93;15.00;;;;;;;11.32;100.00;96258.97;5073023;28;20217;-79
2023/10/19 06:30:17;;;;;;;26.13;15.03;;;;;;;11.36;100.00;96261.13;5072859;28;20842;-79
2023/10/19 06:32:48;;;;;;;27.53;15.80;;;;;;;11.43;100.00;96261.34;5072129;28;20257;-79
2023/10/19 06:35:15;;;;;;;24.63;15.13;;;;;;;11.45;100.00;96262.00;5072798;28;20207;-79
2023/10/19 06:37:42;;;;;;;27.10;14.67;;;;;;;11.46;100.00;96261.03;5073135;28;20230;-79
2023/10/19 06:40:11;;;;;;;26.60;15.67;;;;;;;11.46;100.00;96255.72;5073357;28;20218;-79
2023/10/19 06:42:39;;;;;;;26.30;14.67;;;;;;;11.52;100.00;96260.41;5074815;28;20239;-79
2023/10/19 06:45:08;;;;;;;24.87;14.77;;;;;;;11.54;100.00;96269.00;5095205;28;20207;-79
2023/10/19 06:47:37;;;;;;;24.57;15.03;;;;;;;11.57;100.00;96258.13;5096057;28;20198;-79
2023/10/19 06:50:07;;;;;;;25.30;13.87;;;;;;;11.62;100.00;96258.50;5096451;28;20241;-79
2023/10/19 06:52:33;;;;;;;22.27;13.53;;;;;;;11.66;100.00;96247.44;5096001;28;20238;-79
2023/10/19 06:55:00;;;;;;;23.23;13.83;;;;;;;11.74;100.00;96250.13;5096554;28;20191;-79
2023/10/19 06:57:27;;;;;;;23.00;13.97;;;;;;;11.82;100.00;96251.97;5096507;28;20202;-79
2023/10/19 06:59:55;;;;;;;28.23;14.37;;;;;;;11.86;100.00;96248.03;5080945;28;20305;-80
2023/10/19 07:02:21;;;;;;;25.57;13.87;;;;;;;11.91;100.00;96245.72;5085882;28;20207;-78
2023/10/19 07:04:48;;;;;;;28.73;15.45;;;;;;;11.94;100.00;96240.97;5091028;28;20727;-78
2023/10/19 07:07:14;;;;;;;32.77;20.23;;;;;;;12.00;100.00;96239.47;5071980;28;20889;-79
2023/10/19 07:09:41;;;;;;;34.53;17.30;;;;;;;12.04;100.00;96235.53;5079815;28;20221;-79
2023/10/19 07:12:08;;;;;;;31.80;17.83;;;;;;;12.08;100.00;96244.78;5095290;28;20498;-79
2023/10/19 07:14:35;;;;;;;29.67;16.20;;;;;;;12.14;100.00;96241.50;5096376;28;20979;-79
2023/10/19 07:17:03;;;;;;;28.73;16.03;;;;;;;12.12;100.00;96243.50;5088034;28;20267;-80
2023/10/19 07:19:30;;;;;;;30.37;15.57;;;;;;;12.09;100.00;96236.69;5075380;28;20228;-79
2023/10/19 07:21:58;;;;;;;27.53;15.07;;;;;;;12.09;100.00;96239.34;5071836;28;20258;-79
2023/10/19 07:24:25;;;;;;;28.20;16.47;;;;;;;12.07;100.00;96235.19;5059373;28;20218;-79
2023/10/19 07:27:03;;;;;;;24.17;14.77;;;;;;;12.06;100.00;96237.03;5053105;28;20237;-79
2023/10/19 07:29:31;;;;;;;27.83;17.07;;;;;;;12.06;100.00;96241.47;5053422;28;20239;-79
2023/10/19 07:31:58;;;;;;;29.57;17.23;;;;;;;12.11;100.00;96236.53;5051955;28;20276;-79
2023/10/19 07:34:27;;;;;;;30.87;18.40;;;;;;;12.11;100.00;96236.53;5057467;28;20208;-79
2023/10/19 07:36:55;;;;;;;31.97;18.67;;;;;;;12.14;100.00;96236.19;5068166;28;20667;-79
2023/10/19 07:39:22;;;;;;;32.23;18.63;;;;;;;12.17;100.00;96234.06;5055308;28;20212;-79
2023/10/19 07:41:49;;;;;;;33.40;18.07;;;;;;;12.23;100.00;96240.56;5053068;28;20238;-79
2023/10/19 07:44:15;;;;;;;33.07;19.43;;;;;;;12.29;100.00;96226.66;5053485;28;20212;-79
2023/10/19 07:46:42;;;;;;;32.67;18.80;;;;;;;12.33;100.00;96233.28;5053987;28;20215;-81
2023/10/19 07:49:09;;;;;;;30.60;18.23;;;;;;;12.40;100.00;96226.34;5073753;28;20226;-83
2023/10/19 07:51:36;;;;;;;34.17;18.33;;;;;;;12.45;100.00;96224.03;5073165;28;20238;-79
2023/10/19 07:54:03;;;;;;;34.63;19.10;;;;;;;12.49;100.00;96220.06;5072016;28;20211;-79
2023/10/19 07:56:29;;;;;;;31.03;19.10;;;;;;;12.54;100.00;96212.44;5068453;28;20203;-78
2023/10/19 07:58:56;;;;;;;30.97;18.70;;;;;;;12.59;100.00;96215.44;5073945;28;20196;-80
2023/10/19 08:01:23;;;;;;;35.60;19.67;;;;;;;12.63;100.00;96209.66;5075038;28;20262;-79
2023/10/19 08:03:49;;;;;;;37.77;20.70;;;;;;;12.70;100.00;96223.03;5074543;28;20267;-79
2023/10/19 08:06:16;;;;;;;34.50;19.63;;;;;;;12.76;100.00;96219.72;5077954;28;20192;-79
2023/10/19 08:08:44;;;;;;;35.10;20.03;;;;;;;12.79;100.00;96211.47;5078102;28;20224;-79
2023/10/19 08:11:10;;;;;;;34.93;20.00;;;;;;;12.82;100.00;96217.25;5074696;28;20223;-78
2023/10/19 08:13:37;;;;;;;28.67;18.13;;;;;;;12.85;100.00;96211.63;5073252;28;20215;-78
2023/10/19 08:16:05;;;;;;;26.83;17.50;;;;;;;12.86;100.00;96208.00;5070122;28;20213;-78
2023/10/19 08:18:32;;;;;;;26.87;16.27;;;;;;;12.89;100.00;96209.50;5065087;28;20220;-78
2023/10/19 08:20:58;;;;;;;24.23;16.37;;;;;;;12.92;100.00;96209.13;5068046;28;20228;-78
2023/10/19 08:23:27;;;;;;;30.10;18.27;;;;;;;12.99;100.00;96212.81;5065509;28;20209;-78
2023/10/19 08:25:55;;;;;;;25.97;17.23;;;;;;;13.04;100.00;96221.09;5064297;28;20231;-79
2023/10/19 08:28:22;;;;;;;24.53;17.07;;;;;;;13.13;100.00;96209.47;5056160;28;20248;-80
2023/10/19 08:30:57;;;;;;;26.47;16.73;;;;;;;13.26;100.00;96215.13;5056581;28;20228;-78
2023/10/19 08:33:25;;;;;;;24.03;16.97;;;;;;;13.32;100.00;96217.09;5065028;28;20203;-81
2023/10/19 08:35:53;;;;;;;24.07;16.30;;;;;;;13.42;100.00;96215.06;5073580;28;20221;-80
2023/10/19 08:38:20;;;;;;;30.17;17.67;;;;;;;13.53;100.00;96222.66;5073593;28;20198;-81
2023/10/19 08:40:48;;;;;;;28.63;18.70;;;;;;;13.67;100.00;96221.94;5074119;28;20217;-81
2023/10/19 08:43:18;;;;;;;27.03;18.50;;;;;;;13.84;100.00;96215.59;5075939;28;20210;-82
2023/10/19 08:45:45;;;;;;;26.93;18.13;;;;;;;13.99;100.00;96208.56;5069605;28;20664;-81
2023/10/19 08:48:12;;;;;;;27.20;17.00;;;;;;;14.09;100.00;96201.19;5058000;28;20649;-81
2023/10/19 08:50:38;;;;;;;23.57;16.30;;;;;;;14.14;100.00;96212.13;5035732;28;20276;-81
2023/10/19 08:53:08;;;;;;;23.67;15.90;;;;;;;14.19;100.00;96205.31;5053974;28;20213;-81
2023/10/19 08:55:35;;;;;;;23.13;15.60;;;;;;;14.21;100.00;96197.19;5059238;28;20217;-81
2023/10/19 08:58:04;;;;;;;19.57;14.53;;;;;;;14.24;100.00;96199.50;5075797;28;20256;-81
2023/10/19 09:00:44;;;;;;;25.63;14.93;;;;;;;14.30;100.00;96196.16;5067504;28;20220;-81
2023/10/19 09:03:13;;;;;;;20.67;14.27;;;;;;;14.33;100.00;96201.09;5066396;28;20607;-81
2023/10/19 09:05:41;;;;;;;18.63;12.93;;;;;;;14.41;100.00;96203.69;5061582;28;20210;-82
2023/10/19 09:08:09;;;;;;;19.30;13.67;;;;;;;14.47;100.00;96198.50;5059195;28;20222;-81
2023/10/19 09:10:36;;;;;;;19.87;13.87;;;;;;;14.46;100.00;96196.88;5057993;28;20248;-82
2023/10/19 09:13:04;;;;;;;18.30;15.03;;;;;;;14.61;100.00;96188.94;5065786;28;20212;-78
2023/10/19 09:15:33;;;;;;;19.43;14.17;;;;;;;14.70;100.00;96191.38;5066544;28;20276;-80
2023/10/19 09:17:59;;;;;;;21.50;14.33;;;;;;;14.78;100.00;96199.28;5058991;28;20284;-79
2023/10/19 09:20:28;;;;;;;18.97;13.10;;;;;;;14.93;100.00;96194.84;5056479;28;20240;-77
2023/10/19 09:22:54;;;;;;;17.23;13.07;;;;;;;15.04;100.00;96196.25;5065328;28;20203;-79
2023/10/19 09:25:22;;;;;;;16.10;12.60;;;;;;;15.21;100.00;96197.75;5083610;28;20261;-79
2023/10/19 09:27:49;;;;;;;14.97;11.70;;;;;;;15.31;100.00;96199.13;5082836;28;20214;-78
2023/10/19 09:30:18;;;;;;;16.07;12.20;;;;;;;15.38;100.00;96196.59;5078659;28;20228;-78
2023/10/19 09:32:47;;;;;;;15.27;12.03;;;;;;;15.41;100.00;96193.59;5071459;28;20276;-78
2023/10/19 09:35:15;;;;;;;18.60;11.60;;;;;;;15.47;100.00;96200.84;5072329;28;20214;-78
2023/10/19 09:37:42;;;;;;;15.80;12.27;;;;;;;15.62;100.00;96196.34;5072899;28;20214;-79
2023/10/19 09:40:12;;;;;;;15.93;11.53;;;;;;;15.75;100.00;96186.69;5071507;28;20241;-79
2023/10/19 09:42:45;;;;;;;14.37;11.27;;;;;;;15.84;100.00;96190.94;5071290;28;20242;-78
2023/10/19 09:45:13;;;;;;;13.77;10.83;;;;;;;15.98;100.00;96186.56;5072145;28;20203;-78
2023/10/19 09:47:47;;;;;;;15.67;11.70;;;;;;;16.14;100.00;96180.03;5071165;28;20674;-79
2023/10/19 09:50:15;;;;;;;13.37;10.33;;;;;;;16.21;100.00;96182.78;5071692;28;20227;-78
2023/10/19 09:52:42;;;;;;;13.77;10.83;;;;;;;16.16;100.00;96193.19;5070859;28;20630;-78
2023/10/19 09:55:13;;;;;;;11.40;9.90;;;;;;;16.12;100.00;96205.22;5059373;28;20638;-79
2023/10/19 09:57:47;;;;;;;11.20;9.53;;;;;;;16.13;100.00;96202.38;5043796;28;20221;-78
2023/10/19 10:00:15;;;;;;;10.87;9.37;;;;;;;16.13;100.00;96198.06;5051975;28;20214;-78
2023/10/19 10:02:45;;;;;;;11.43;9.03;;;;;;;16.12;100.00;96196.41;5051760;28;20255;-78
2023/10/19 10:05:48;;;;;;;10.50;9.03;;;;;;;16.12;100.00;96199.88;5052266;28;20215;-78
2023/10/19 10:08:33;;;;;;;10.80;8.00;;;;;;;16.16;100.00;96204.63;5052446;28;20655;-78
2023/10/19 10:11:16;;;;;;;11.33;7.93;;;;;;;16.25;100.00;96206.19;5052425;28;20234;-78
2023/10/19 10:13:43;;;;;;;9.20;7.67;;;;;;;16.33;100.00;96200.75;5051675;28;20725;-78
2023/10/19 10:16:10;;;;;;;9.43;7.60;;;;;;;16.39;100.00;96192.03;5052245;28;20265;-77
2023/10/19 10:18:37;;;;;;;8.03;7.23;;;;;;;16.49;100.00;96202.38;5052481;28;20218;-77
2023/10/19 10:21:12;;;;;;;8.27;6.43;;;;;;;16.54;100.00;96198.16;5051997;28;20403;-78
2023/10/19 10:23:42;;;;;;;5.97;5.03;;;;;;;16.56;100.00;96204.13;5051095;28;20265;-78
2023/10/19 10:26:09;;;;;;;5.70;4.83;;;;;;;16.56;100.00;96198.78;5051751;28;20285;-77
2023/10/19 10:28:36;;;;;;;5.03;4.53;;;;;;;16.59;100.00;96203.72;5051748;28;20220;-78
2023/10/19 10:31:16;;;;;;;6.30;5.50;;;;;;;16.63;100.00;96201.53;5051761;28;20278;-78
2023/10/19 10:33:46;;;;;;;5.57;4.70;;;;;;;16.66;100.00;96204.66;5051344;28;20212;-78
2023/10/19 10:36:16;;;;;;;5.07;4.50;;;;;;;16.70;100.00;96200.56;5051775;28;20208;-79
2023/10/19 10:38:43;;;;;;;4.90;4.37;;;;;;;16.74;100.00;96201.84;5051904;28;20630;-79
2023/10/19 10:41:10;;;;;;;4.50;4.10;;;;;;;16.76;100.00;96199.81;5052005;28;20231;-79
2023/10/19 10:43:51;;;;;;;4.70;4.20;;;;;;;16.85;100.00;96192.50;5051064;28;20265;-79
2023/10/19 10:46:17;;;;;;;4.93;3.97;;;;;;;16.89;100.00;96194.59;5052036;28;20212;-79
2023/10/19 10:48:44;;;;;;;4.23;3.83;;;;;;;16.96;100.00;96195.47;5052104;28;20212;-79
2023/10/19 10:51:19;;;;;;;4.20;3.80;;;;;;;16.98;100.00;96201.47;5051339;28;20232;-79
2023/10/19 10:53:49;;;;;;;4.93;3.80;;;;;;;17.04;100.00;96199.84;5050545;28;20218;-79
2023/10/19 10:56:16;;;;;;;4.87;3.90;;;;;;;17.06;100.00;96201.31;5051891;28;20204;-80
2023/10/19 10:58:42;;;;;;;5.50;4.43;;;;;;;17.06;100.00;96195.97;5052774;28;20219;-76
2023/10/19 11:01:10;;;;;;;4.57;4.13;;;;;;;17.05;100.00;96199.66;5053061;28;20309;-79
2023/10/19 11:03:36;;;;;;;4.33;3.80;;;;;;;17.05;100.00;96199.66;5052176;28;20696;-79
2023/10/19 11:06:07;;;;;;;5.20;3.80;;;;;;;17.06;100.00;96209.31;5052967;28;20211;-79
2023/10/19 11:08:36;;;;;;;4.47;4.00;;;;;;;17.00;100.00;96207.41;5052687;28;20281;-79
2023/10/19 11:11:05;;;;;;;5.87;4.70;;;;;;;16.95;100.00;96209.84;5052705;28;20564;-79
2023/10/19 11:13:34;;;;;;;5.87;4.93;;;;;;;16.83;100.00;96205.22;5051940;28;20255;-79
2023/10/19 11:16:01;;;;;;;6.10;4.83;;;;;;;16.81;100.00;96217.91;5052812;28;20210;-79
2023/10/19 11:18:33;;;;;;;6.53;4.70;;;;;;;16.77;100.00;96211.31;5052511;28;20664;-79
2023/10/19 11:21:05;;;;;;;6.30;4.83;;;;;;;16.66;100.00;96204.66;5052703;28;20231;-78
2023/10/19 11:23:41;;;;;;;6.33;5.47;;;;;;;16.52;100.00;96196.69;5051784;28;20258;-78